CCGS Neocaligus — CG7677 — position and weather

sailwx.info

Track history (hours):
 
Tides and Currents Weather Stations Pressure Air Temp Water Temp Dewpoint Dewpoint Depression Visibility Wind Speed Wind Dir Waves Ship Positions

CCGS Neocaligus

Last reported at 2018-Apr-12 22:50 UTC. Time now 2018-Apr-21 17:23 UTC.
Position N 49°02' W 123°27'.
Warning: this ship's position is 8 days out of date.

Length 23 m.

Type: SAR. MMSI: 316001759.

Date/timePositionNaut miles runAvg speedWind from/ knotsBaromVisibWave heightAir tempDewpointWater temp
2018-Apr-12 22:50N 49°02' W 123°27'410.0
2018-Apr-12 22:24N 48°59' W 123°23'510.2
2018-Apr-12 21:57N 48°56' W 123°18'3 1.4
2018-Apr-12 19:52N 48°55' W 123°14'2 2.1
2018-Apr-12 18:57N 48°56' W 123°15'4 8.6
2018-Apr-12 18:30N 48°53' W 123°12'5 1.4
2018-Apr-12 14:57N 48°50' W 123°07'4 4.3
2018-Apr-12 13:54N 48°45' W 123°05'3 8.8
2018-Apr-12 13:31N 48°46' W 123°11'8 0.2
2018-Apr-10 18:53N 48°52' W 123°18'19 8.7
2018-Apr-10 16:42N 48°34' W 123°17'210.1
2018-Apr-10 16:30N 48°32' W 123°17'5 9.7
2018-Apr-10 16:00N 48°27' W 123°15'4 8.9
2018-Apr-10 15:30N 48°23' W 123°19'24 1.2
2018-Apr-09 19:43N 48°20' W 123°55'0 0.2
2018-Apr-09 19:17N 48°20' W 123°55'1 3.0
2018-Apr-09 18:57N 48°20' W 123°57'3 3.7
2018-Apr-09 18:09N 48°18' W 123°53'1 2.5
2018-Apr-09 17:44N 48°18' W 123°55'0 1.2
2018-Apr-09 17:25N 48°19' W 123°55'1 1.3
2018-Apr-09 16:52N 48°18' W 123°56'1 1.9
2018-Apr-09 16:27N 48°19' W 123°57'0 0.7
2018-Apr-09 15:58N 48°19' W 123°57'2 3.5
2018-Apr-09 15:30N 48°19' W 123°59'7 4.8
2018-Apr-09 13:56N 48°20' W 123°48'610.9
2018-Apr-09 13:26N 48°19' W 123°40'11 0.9
2018-Apr-09 00:40N 48°21' W 123°56'2 9.6
2018-Apr-09 00:30N 48°21' W 123°58'1 0.6
2018-Apr-08 23:38N 48°21' W 123°58'1 9.2
2018-Apr-08 23:30N 48°21' W 123°60'2 3.2
2018-Apr-08 23:00N 48°22' W 124°02'1 1.4
2018-Apr-08 22:29N 48°21' W 124°03'1 1.6
2018-Apr-08 22:00N 48°22' W 124°04'3 5.6
2018-Apr-08 21:30N 48°23' W 124°08'1 1.8
2018-Apr-08 21:00N 48°23' W 124°09'2 3.1
2018-Apr-08 20:30N 48°25' W 124°10'1 2.1
2018-Apr-08 20:01N 48°25' W 124°11'1 1.4
2018-Apr-08 19:30N 48°25' W 124°12'1 2.3
2018-Apr-08 19:01N 48°25' W 124°14'3 5.2
2018-Apr-08 18:30N 48°26' W 124°18'1 2.0
2018-Apr-08 18:01N 48°26' W 124°19'1 1.9
2018-Apr-08 17:30N 48°26' W 124°20'1 1.2
2018-Apr-08 17:01N 48°26' W 124°21'2 3.2
2018-Apr-08 16:30N 48°27' W 124°19'1 2.0
2018-Apr-08 16:00N 48°26' W 124°17'4 8.7
2018-Apr-08 15:30N 48°25' W 124°11'1810.5
2018-Apr-08 13:46N 48°19' W 123°45'311.0
2018-Apr-08 13:30N 48°19' W 123°41'17 1.1
2018-Apr-07 21:39N 48°25' W 123°17'110.2
2018-Apr-07 21:30N 48°26' W 123°16'510.2
2018-Apr-07 21:00N 48°31' W 123°16'16 0.8
2018-Apr-07 01:22N 48°47' W 123°22'4 9.6
2018-Apr-07 01:00N 48°50' W 123°25'5 9.6
2018-Apr-07 00:28N 48°54' W 123°29'5 9.9
2018-Apr-06 23:59N 48°58' W 123°34'7 8.5
2018-Apr-06 23:13N 49°04' W 123°36'4 9.3
2018-Apr-06 22:46N 49°08' W 123°38'3 9.0
2018-Apr-06 22:27N 49°10' W 123°41'  
Track history (hours):
 
Tides and Currents Weather Stations Pressure Air Temp Water Temp Dewpoint Dewpoint Depression Visibility Wind Speed Wind Dir Waves Ship Positions

CCGS Neocaligus

Last reported at 2018-Apr-12 22:50 UTC. Time now 2018-Apr-21 17:23 UTC.
Position N 49°02' W 123°27'.
Warning: this ship's position is 8 days out of date.

Length 23 m.

Type: SAR. MMSI: 316001759.

Date/timePositionNaut miles runAvg speedWind from/ knotsBaromVisibWave heightAir tempDewpointWater temp
2018-Apr-12 22:50N 49°02' W 123°27'410.0
2018-Apr-12 22:24N 48°59' W 123°23'510.2
2018-Apr-12 21:57N 48°56' W 123°18'3 1.4
2018-Apr-12 19:52N 48°55' W 123°14'2 2.1
2018-Apr-12 18:57N 48°56' W 123°15'4 8.6
2018-Apr-12 18:30N 48°53' W 123°12'5 1.4
2018-Apr-12 14:57N 48°50' W 123°07'4 4.3
2018-Apr-12 13:54N 48°45' W 123°05'3 8.8
2018-Apr-12 13:31N 48°46' W 123°11'8 0.2
2018-Apr-10 18:53N 48°52' W 123°18'19 8.7
2018-Apr-10 16:42N 48°34' W 123°17'210.1
2018-Apr-10 16:30N 48°32' W 123°17'5 9.7
2018-Apr-10 16:00N 48°27' W 123°15'4 8.9
2018-Apr-10 15:30N 48°23' W 123°19'24 1.2
2018-Apr-09 19:43N 48°20' W 123°55'0 0.2
2018-Apr-09 19:17N 48°20' W 123°55'1 3.0
2018-Apr-09 18:57N 48°20' W 123°57'3 3.7
2018-Apr-09 18:09N 48°18' W 123°53'1 2.5
2018-Apr-09 17:44N 48°18' W 123°55'0 1.2
2018-Apr-09 17:25N 48°19' W 123°55'1 1.3
2018-Apr-09 16:52N 48°18' W 123°56'1 1.9
2018-Apr-09 16:27N 48°19' W 123°57'0 0.7
2018-Apr-09 15:58N 48°19' W 123°57'2 3.5
2018-Apr-09 15:30N 48°19' W 123°59'7 4.8
2018-Apr-09 13:56N 48°20' W 123°48'610.9
2018-Apr-09 13:26N 48°19' W 123°40'11 0.9
2018-Apr-09 00:40N 48°21' W 123°56'2 9.6
2018-Apr-09 00:30N 48°21' W 123°58'1 0.6
2018-Apr-08 23:38N 48°21' W 123°58'1 9.2
2018-Apr-08 23:30N 48°21' W 123°60'2 3.2
2018-Apr-08 23:00N 48°22' W 124°02'1 1.4
2018-Apr-08 22:29N 48°21' W 124°03'1 1.6
2018-Apr-08 22:00N 48°22' W 124°04'3 5.6
2018-Apr-08 21:30N 48°23' W 124°08'1 1.8
2018-Apr-08 21:00N 48°23' W 124°09'2 3.1
2018-Apr-08 20:30N 48°25' W 124°10'1 2.1
2018-Apr-08 20:01N 48°25' W 124°11'1 1.4
2018-Apr-08 19:30N 48°25' W 124°12'1 2.3
2018-Apr-08 19:01N 48°25' W 124°14'3 5.2
2018-Apr-08 18:30N 48°26' W 124°18'1 2.0
2018-Apr-08 18:01N 48°26' W 124°19'1 1.9
2018-Apr-08 17:30N 48°26' W 124°20'1 1.2
2018-Apr-08 17:01N 48°26' W 124°21'2 3.2
2018-Apr-08 16:30N 48°27' W 124°19'1 2.0
2018-Apr-08 16:00N 48°26' W 124°17'4 8.7
2018-Apr-08 15:30N 48°25' W 124°11'1810.5
2018-Apr-08 13:46N 48°19' W 123°45'311.0
2018-Apr-08 13:30N 48°19' W 123°41'17 1.1
2018-Apr-07 21:39N 48°25' W 123°17'110.2
2018-Apr-07 21:30N 48°26' W 123°16'510.2
2018-Apr-07 21:00N 48°31' W 123°16'16 0.8
2018-Apr-07 01:22N 48°47' W 123°22'4 9.6
2018-Apr-07 01:00N 48°50' W 123°25'5 9.6
2018-Apr-07 00:28N 48°54' W 123°29'5 9.9
2018-Apr-06 23:59N 48°58' W 123°34'7 8.5
2018-Apr-06 23:13N 49°04' W 123°36'4 9.3
2018-Apr-06 22:46N 49°08' W 123°38'3 9.0
2018-Apr-06 22:27N 49°10' W 123°41'  

Dump ship's entire track history